Time;durP1;ratioP1;P1;durP2;ratioP2;P2;SDS_P1;SDS_P2;PMS_P1;PMS_P2;Temp;Humidity;BMP_temperature;BMP_pressure;BME280_temperature;BME280_humidity;BME280_pressure;Samples;Min_cycle;Max_cycle;Signal;HPM_P1;HPM_P2
2022/04/20 00:03:35;;;;;;;0.40;0.40;;;15.40;99.90;;;;;;6288628;22;20233;-91
2022/04/20 00:06:08;;;;;;;0.40;0.30;;;15.30;99.90;;;;;;6329890;22;20175;-92
2022/04/20 00:08:45;;;;;;;1.20;0.43;;;15.20;99.90;;;;;;6332197;22;20198;-91
2022/04/20 00:14:20;;;;;;;0.77;0.50;;;14.60;99.90;;;;;;6334660;22;20173;-93
2022/04/20 00:17:09;;;;;;;1.07;0.40;;;14.70;99.90;;;;;;6325766;22;20174;-93
2022/04/20 00:19:41;;;;;;;0.50;0.50;;;14.60;99.90;;;;;;6331354;22;20170;-94
2022/04/20 00:25:03;;;;;;;1.13;0.70;;;14.90;99.90;;;;;;6329289;22;20182;-92
2022/04/20 00:27:42;;;;;;;0.60;0.50;;;15.10;99.90;;;;;;6302249;22;20200;-92
2022/04/20 00:35:56;;;;;;;0.37;0.37;;;14.30;99.90;;;;;;6320377;22;20625;-92
2022/04/20 00:38:29;;;;;;;1.23;0.60;;;14.50;99.90;;;;;;6328035;22;20166;-93
2022/04/20 00:41:05;;;;;;;0.77;0.60;;;14.70;99.90;;;;;;6331026;22;20193;-93
2022/04/20 00:46:14;;;;;;;0.40;0.40;;;14.70;99.90;;;;;;6298082;22;20171;-93
2022/04/20 00:48:50;;;;;;;0.90;0.60;;;14.50;99.90;;;;;;6283349;22;20209;-92
2022/04/20 00:51:23;;;;;;;1.37;0.70;;;14.10;99.90;;;;;;6291726;22;20170;-93
2022/04/20 00:53:59;;;;;;;0.73;0.63;;;14.00;99.90;;;;;;6290612;22;20237;-93
2022/04/20 00:56:35;;;;;;;0.87;0.60;;;14.00;99.90;;;;;;6297456;22;20163;-94
2022/04/20 00:59:08;;;;;;;0.73;0.67;;;13.70;99.90;;;;;;6292225;22;20175;-91
2022/04/20 01:01:40;;;;;;;1.00;0.60;;;13.70;99.90;;;;;;6290243;22;20173;-92
2022/04/20 01:04:19;;;;;;;0.83;0.47;;;13.50;99.90;;;;;;6295247;22;20175;-91
2022/04/20 01:06:52;;;;;;;0.70;0.53;;;13.40;99.90;;;;;;6303393;22;20182;-92
2022/04/20 01:09:25;;;;;;;0.50;0.50;;;13.40;99.90;;;;;;6303240;22;20187;-92
2022/04/20 01:11:59;;;;;;;0.70;0.60;;;13.80;99.90;;;;;;6299120;22;20231;-92
2022/04/20 01:14:31;;;;;;;1.93;0.67;;;13.60;99.90;;;;;;6301841;22;20242;-91
2022/04/20 01:17:04;;;;;;;0.97;0.67;;;13.40;99.90;;;;;;6303944;22;20167;-92
2022/04/20 01:19:36;;;;;;;1.50;0.60;;;13.10;99.90;;;;;;6302542;22;20183;-92
2022/04/20 01:22:21;;;;;;;1.57;0.70;;;12.90;99.90;;;;;;6299018;22;20174;-92
2022/04/20 01:24:57;;;;;;;0.90;0.60;;;12.60;99.90;;;;;;6303812;22;20167;-92
2022/04/20 01:27:29;;;;;;;1.10;0.73;;;12.50;99.90;;;;;;6301709;22;20175;-91
2022/04/20 01:30:15;;;;;;;1.53;0.90;;;12.40;99.90;;;;;;6295554;22;20198;-92
2022/04/20 01:32:46;;;;;;;1.50;0.60;;;12.40;99.90;;;;;;6299536;22;20171;-93
2022/04/20 01:35:18;;;;;;;1.00;0.60;;;12.70;99.90;;;;;;6297824;22;20186;-92
2022/04/20 01:37:54;;;;;;;1.90;0.70;;;13.00;99.90;;;;;;6293996;22;20602;-92
2022/04/20 01:40:25;;;;;;;0.53;0.53;;;13.20;99.90;;;;;;6289058;22;20175;-93
2022/04/20 01:42:56;;;;;;;0.60;0.60;;;13.20;99.90;;;;;;6288654;22;20179;-91
2022/04/20 01:45:27;;;;;;;0.73;0.60;;;13.20;99.90;;;;;;6309741;22;20230;-92
2022/04/20 01:53:31;;;;;;;1.27;0.63;;;13.20;99.90;;;;;;6326546;22;20178;-93
2022/04/20 01:56:06;;;;;;;0.57;0.40;;;13.00;99.90;;;;;;6318234;22;20174;-92
2022/04/20 01:58:38;;;;;;;0.53;0.53;;;12.80;99.90;;;;;;6331299;22;20170;-92
2022/04/20 02:03:53;;;;;;;1.33;0.50;;;12.70;99.90;;;;;;6334115;22;20173;-91
2022/04/20 02:06:25;;;;;;;1.47;0.70;;;12.60;99.90;;;;;;6334656;22;20163;-90
2022/04/20 02:08:58;;;;;;;0.87;0.63;;;12.60;99.90;;;;;;6333526;22;20212;-92
2022/04/20 02:11:30;;;;;;;0.90;0.60;;;12.50;99.90;;;;;;6323188;22;20254;-91
2022/04/20 02:14:01;;;;;;;1.47;1.10;;;12.40;99.90;;;;;;6334560;22;20196;-90
2022/04/20 02:16:33;;;;;;;1.00;0.70;;;12.30;99.90;;;;;;6334318;22;20174;-90
2022/04/20 02:21:41;;;;;;;1.40;0.77;;;12.10;99.90;;;;;;6324385;22;20186;-91
2022/04/20 02:24:15;;;;;;;1.93;1.00;;;11.90;99.90;;;;;;6366043;22;20153;-91
2022/04/20 02:26:46;;;;;;;1.97;0.87;;;11.90;99.90;;;;;;6365100;22;20174;-89
2022/04/20 02:29:17;;;;;;;1.43;0.70;;;11.80;99.90;;;;;;6364875;22;20158;-91
2022/04/20 02:31:52;;;;;;;0.70;0.60;;;11.70;99.90;;;;;;6365896;22;20199;-91
2022/04/20 02:37:09;;;;;;;0.70;0.70;;;11.60;99.90;;;;;;6366403;22;20157;-90
2022/04/20 02:40:10;;;;;;;2.77;0.70;;;11.60;99.90;;;;;;6310802;22;20199;-92
2022/04/20 02:42:42;;;;;;;3.90;0.70;;;11.50;99.90;;;;;;6304496;22;20167;-92
2022/04/20 02:45:13;;;;;;;1.07;0.80;;;11.50;99.90;;;;;;6303374;22;20238;-91
2022/04/20 02:47:49;;;;;;;1.07;0.70;;;11.40;99.90;;;;;;6276586;22;20198;-92
2022/04/20 02:50:23;;;;;;;0.50;0.50;;;11.20;99.90;;;;;;6301112;22;20194;-92
2022/04/20 02:52:55;;;;;;;1.37;0.77;;;11.10;99.90;;;;;;6275135;22;20167;-92
2022/04/20 02:55:29;;;;;;;2.20;0.73;;;11.00;99.90;;;;;;6299744;22;20216;-91
2022/04/20 02:58:01;;;;;;;1.50;0.80;;;11.00;99.90;;;;;;6297462;22;20178;-92
2022/04/20 03:00:36;;;;;;;1.37;0.80;;;10.90;99.90;;;;;;6297045;22;20179;-91
2022/04/20 03:03:10;;;;;;;0.97;0.50;;;10.90;99.90;;;;;;6294386;22;20175;-92
2022/04/20 03:05:41;;;;;;;0.60;0.60;;;10.80;99.90;;;;;;6296604;22;20186;-92
2022/04/20 03:08:14;;;;;;;1.67;0.70;;;10.70;99.90;;;;;;6292101;22;20171;-92
2022/04/20 03:11:01;;;;;;;2.03;0.60;;;10.60;99.90;;;;;;6293986;22;20213;-92
2022/04/20 03:13:32;;;;;;;1.03;0.77;;;10.50;99.90;;;;;;6294633;22;20175;-92
2022/04/20 03:18:53;;;;;;;1.63;0.87;;;10.30;99.90;;;;;;6302535;22;20171;-92
2022/04/20 03:24:01;;;;;;;1.43;0.60;;;10.10;99.90;;;;;;6273144;22;20238;-92
2022/04/20 03:26:37;;;;;;;0.77;0.50;;;10.10;99.90;;;;;;6268697;23;20214;-91
2022/04/20 03:29:08;;;;;;;3.37;0.70;;;10.20;99.90;;;;;;6266163;23;20176;-91
2022/04/20 03:31:43;;;;;;;1.40;0.80;;;10.10;99.90;;;;;;6267257;23;20211;-91
2022/04/20 03:37:13;;;;;;;0.93;0.80;;;9.90;99.90;;;;;;6270510;23;20164;-90
2022/04/20 03:39:51;;;;;;;0.93;0.80;;;10.00;99.90;;;;;;6271974;22;20172;-91
2022/04/20 03:42:26;;;;;;;1.53;0.70;;;9.90;99.90;;;;;;6266529;22;20206;-91
2022/04/20 03:44:59;;;;;;;1.23;0.70;;;9.80;99.90;;;;;;6270090;22;20175;-91
2022/04/20 03:47:33;;;;;;;0.70;0.70;;;9.80;99.90;;;;;;6272420;22;20167;-93
2022/04/20 03:50:07;;;;;;;1.17;0.67;;;9.80;99.90;;;;;;6273983;22;20192;-92
2022/04/20 03:52:40;;;;;;;0.73;0.70;;;9.80;99.90;;;;;;6273851;22;20152;-92
2022/04/20 03:58:00;;;;;;;1.00;0.77;;;9.70;99.90;;;;;;6322129;22;20225;-92
2022/04/20 04:00:33;;;;;;;1.60;0.90;;;9.70;99.90;;;;;;6328501;22;20227;-91
2022/04/20 04:03:06;;;;;;;1.33;0.80;;;9.70;99.90;;;;;;6327609;22;20225;-92
2022/04/20 04:05:42;;;;;;;2.00;0.70;;;9.60;99.90;;;;;;6326765;22;20162;-92
2022/04/20 04:08:14;;;;;;;1.67;0.97;;;9.60;99.90;;;;;;6326974;22;20200;-92
2022/04/20 04:10:45;;;;;;;1.33;0.90;;;9.60;99.90;;;;;;6325049;22;20198;-91
2022/04/20 04:13:19;;;;;;;0.97;0.77;;;9.40;99.90;;;;;;6321785;22;20542;-92
2022/04/20 04:15:50;;;;;;;1.23;0.90;;;9.30;99.90;;;;;;6316337;22;20245;-90
2022/04/20 04:18:22;;;;;;;1.50;0.90;;;9.20;99.90;;;;;;6289130;22;20198;-92
2022/04/20 04:20:55;;;;;;;2.17;1.17;;;9.10;99.90;;;;;;6323305;22;20175;-91
2022/04/20 04:23:33;;;;;;;2.57;0.90;;;9.10;99.90;;;;;;6324350;22;20225;-90
2022/04/20 04:26:04;;;;;;;1.20;0.80;;;9.00;99.90;;;;;;6326692;22;20174;-90
2022/04/20 04:28:40;;;;;;;2.57;0.80;;;8.90;99.90;;;;;;6327482;22;20228;-91
2022/04/20 04:31:15;;;;;;;1.57;0.80;;;8.80;99.90;;;;;;6329746;22;20220;-91
2022/04/20 04:33:48;;;;;;;4.67;1.20;;;8.70;99.90;;;;;;6332334;22;20174;-90
2022/04/20 04:36:19;;;;;;;1.33;0.90;;;8.60;99.90;;;;;;6318745;22;20254;-91
2022/04/20 04:38:54;;;;;;;1.93;0.73;;;8.40;99.90;;;;;;6318639;22;20175;-91
2022/04/20 04:41:26;;;;;;;1.63;0.77;;;8.30;99.90;;;;;;6313662;22;20201;-92
2022/04/20 04:44:00;;;;;;;1.60;1.00;;;8.20;99.90;;;;;;6315418;22;20174;-91
2022/04/20 04:49:21;;;;;;;1.50;0.97;;;8.10;99.90;;;;;;6314417;22;20605;-91
2022/04/20 04:51:55;;;;;;;1.33;0.93;;;8.00;99.90;;;;;;6316633;22;20220;-91
2022/04/20 04:54:30;;;;;;;2.57;1.00;;;7.90;99.90;;;;;;6316593;22;20185;-91
2022/04/20 04:57:02;;;;;;;1.73;0.97;;;7.90;99.90;;;;;;6320218;22;20182;-92
2022/04/20 04:59:37;;;;;;;0.90;0.80;;;7.90;99.90;;;;;;6314518;22;20174;-90
2022/04/20 05:02:09;;;;;;;1.07;0.80;;;7.90;99.90;;;;;;6319756;22;20162;-90
2022/04/20 05:04:42;;;;;;;1.00;0.90;;;7.80;99.90;;;;;;6317805;22;20220;-91
2022/04/20 05:07:13;;;;;;;1.37;1.00;;;7.80;99.90;;;;;;6320577;22;20170;-92
2022/04/20 05:09:45;;;;;;;1.37;0.80;;;7.80;99.90;;;;;;6320756;22;20605;-91
2022/04/20 05:12:19;;;;;;;2.07;1.03;;;7.70;99.90;;;;;;6322037;22;20205;-92
2022/04/20 05:14:53;;;;;;;1.37;1.00;;;7.60;99.90;;;;;;6322582;22;20173;-91
2022/04/20 05:17:25;;;;;;;1.37;0.90;;;7.50;99.90;;;;;;6317388;22;20678;-91
2022/04/20 05:19:56;;;;;;;2.47;0.90;;;7.50;99.90;;;;;;6326936;22;20178;-91
2022/04/20 05:22:27;;;;;;;1.67;1.07;;;7.40;99.90;;;;;;6323098;22;20178;-92
2022/04/20 05:24:58;;;;;;;2.20;1.00;;;7.40;99.90;;;;;;6324585;22;20174;-91
2022/04/20 05:27:30;;;;;;;1.80;1.40;;;7.40;99.90;;;;;;6329465;22;20178;-91
2022/04/20 05:30:05;;;;;;;2.93;1.77;;;7.30;99.90;;;;;;6334981;22;20201;-91
2022/04/20 05:32:38;;;;;;;2.33;1.77;;;7.30;99.90;;;;;;6332709;22;20212;-92
2022/04/20 05:35:10;;;;;;;1.50;1.40;;;7.20;99.90;;;;;;6324229;22;20185;-91
2022/04/20 05:43:16;;;;;;;1.30;0.93;;;7.10;99.90;;;;;;6325330;22;20232;-92
2022/04/20 05:45:51;;;;;;;1.67;1.10;;;7.00;99.90;;;;;;6329191;22;20170;-91
2022/04/20 05:48:27;;;;;;;1.10;1.00;;;7.00;99.90;;;;;;6324343;22;20631;-90
2022/04/20 05:50:59;;;;;;;2.57;1.13;;;7.00;99.90;;;;;;6325935;22;20178;-90
2022/04/20 05:53:29;;;;;;;1.90;1.03;;;7.00;99.90;;;;;;6325492;22;20170;-90
2022/04/20 05:56:01;;;;;;;1.63;1.00;;;6.90;99.90;;;;;;6327908;22;20163;-90
2022/04/20 05:58:32;;;;;;;0.90;0.70;;;6.70;99.90;;;;;;6325635;22;20184;-90
2022/04/20 06:01:09;;;;;;;1.00;0.90;;;6.60;99.90;;;;;;6330551;22;20182;-90
2022/04/20 06:03:41;;;;;;;2.53;1.17;;;6.50;99.90;;;;;;6325974;22;20174;-90
2022/04/20 06:06:13;;;;;;;1.50;0.83;;;6.50;99.90;;;;;;6320123;22;20178;-91
2022/04/20 06:08:44;;;;;;;1.17;1.00;;;6.50;99.90;;;;;;6320338;22;20174;-91
2022/04/20 06:11:15;;;;;;;1.43;1.03;;;6.50;99.90;;;;;;6313077;22;20227;-91
2022/04/20 06:13:47;;;;;;;1.30;0.90;;;6.50;99.90;;;;;;6312010;22;20181;-91
2022/04/20 06:16:24;;;;;;;1.63;0.90;;;6.50;99.90;;;;;;6313121;22;20578;-91
2022/04/20 06:19:02;;;;;;;1.50;1.00;;;6.50;99.90;;;;;;6311602;22;20163;-90
2022/04/20 06:21:34;;;;;;;1.63;0.83;;;6.50;99.90;;;;;;6313186;22;20188;-91
2022/04/20 06:24:09;;;;;;;2.00;1.27;;;6.40;99.90;;;;;;6320902;22;20186;-92
2022/04/20 06:26:40;;;;;;;1.90;0.90;;;6.40;99.90;;;;;;6312701;22;20174;-91
2022/04/20 06:29:12;;;;;;;1.20;1.00;;;6.30;99.90;;;;;;6311351;22;20174;-91
2022/04/20 06:31:46;;;;;;;1.50;0.83;;;6.30;99.90;;;;;;6313114;22;20166;-92
2022/04/20 06:34:17;;;;;;;1.83;1.10;;;6.30;99.90;;;;;;6311762;22;20171;-91
2022/04/20 06:36:50;;;;;;;1.10;1.00;;;6.20;99.90;;;;;;6311580;22;20172;-91
2022/04/20 06:39:22;;;;;;;1.57;1.00;;;6.20;99.90;;;;;;6310861;22;20173;-90
2022/04/20 06:41:54;;;;;;;2.13;1.17;;;6.20;99.90;;;;;;6311387;22;20277;-91
2022/04/20 06:44:25;;;;;;;1.13;1.00;;;6.10;99.90;;;;;;6313369;22;20508;-91
2022/04/20 06:47:00;;;;;;;2.83;1.20;;;6.10;99.90;;;;;;6322380;22;20185;-89
2022/04/20 06:49:31;;;;;;;3.17;1.20;;;6.10;99.90;;;;;;6319909;22;20174;-90
2022/04/20 07:00:32;;;;;;;2.53;1.03;;;5.90;99.90;;;;;;6313127;22;20175;-91
2022/04/20 07:03:07;;;;;;;0.80;0.80;;;6.00;99.90;;;;;;6313182;22;20544;-92
2022/04/20 07:05:39;;;;;;;1.37;1.00;;;5.90;99.90;;;;;;6328694;22;20177;-92
2022/04/20 07:08:10;;;;;;;2.53;1.13;;;5.90;99.90;;;;;;6328697;22;20174;-91
2022/04/20 07:10:41;;;;;;;1.37;1.27;;;5.80;99.90;;;;;;6323897;22;20174;-90
2022/04/20 07:13:13;;;;;;;2.13;1.20;;;5.80;99.90;;;;;;6317520;22;20180;-91
2022/04/20 07:15:45;;;;;;;0.93;0.73;;;5.80;99.90;;;;;;6316546;22;20244;-92
2022/04/20 07:18:18;;;;;;;1.43;0.93;;;5.90;99.90;;;;;;6314883;22;20492;-91
2022/04/20 07:20:51;;;;;;;2.07;1.10;;;6.00;99.90;;;;;;6314683;22;20181;-91
2022/04/20 07:23:23;;;;;;;0.80;0.80;;;6.10;99.90;;;;;;6313554;22;20199;-91
2022/04/20 07:25:58;;;;;;;2.10;0.90;;;6.20;99.90;;;;;;6314931;22;20166;-91
2022/04/20 07:28:29;;;;;;;2.77;1.10;;;6.30;99.90;;;;;;6313298;22;20166;-92
2022/04/20 07:31:04;;;;;;;4.33;1.10;;;6.40;99.90;;;;;;6315062;22;20159;-92
2022/04/20 07:33:38;;;;;;;2.07;1.00;;;6.30;99.90;;;;;;6313935;22;20191;-91
2022/04/20 07:36:10;;;;;;;1.63;1.10;;;6.40;99.90;;;;;;6311858;22;20188;-91
2022/04/20 07:38:42;;;;;;;2.00;0.87;;;6.40;99.90;;;;;;6314217;22;20171;-91
2022/04/20 07:41:14;;;;;;;1.60;1.10;;;6.40;99.90;;;;;;6314951;22;20209;-91
2022/04/20 07:43:46;;;;;;;1.00;0.90;;;6.40;99.90;;;;;;6321094;22;20186;-90
2022/04/20 07:46:19;;;;;;;2.23;1.13;;;6.40;99.90;;;;;;6332091;22;20163;-91
2022/04/20 07:48:56;;;;;;;0.80;0.80;;;6.40;99.90;;;;;;6331785;22;20166;-90
2022/04/20 07:51:27;;;;;;;1.13;1.00;;;6.40;99.90;;;;;;6319872;22;20162;-91
2022/04/20 07:53:59;;;;;;;2.47;1.00;;;6.40;99.90;;;;;;6316429;22;20276;-90
2022/04/20 07:56:30;;;;;;;2.10;1.00;;;6.30;99.90;;;;;;6315271;22;20185;-88
2022/04/20 07:59:02;;;;;;;0.70;0.70;;;6.20;99.90;;;;;;6316421;22;20235;-90
2022/04/20 08:01:33;;;;;;;1.07;0.90;;;6.10;99.90;;;;;;6317324;22;20174;-91
2022/04/20 08:04:07;;;;;;;1.67;1.10;;;6.00;99.90;;;;;;6316888;22;20281;-90
2022/04/20 08:06:42;;;;;;;1.47;1.00;;;6.00;99.90;;;;;;6326920;22;20185;-90
2022/04/20 08:09:14;;;;;;;2.10;1.10;;;5.90;99.90;;;;;;6319080;22;20176;-91
2022/04/20 08:11:45;;;;;;;0.73;0.73;;;5.80;99.90;;;;;;6320728;22;20208;-89
2022/04/20 08:14:17;;;;;;;1.43;1.00;;;5.70;99.90;;;;;;6317868;22;20320;-90
2022/04/20 08:16:49;;;;;;;0.90;0.90;;;5.70;99.90;;;;;;6323030;22;20197;-90
2022/04/20 08:19:22;;;;;;;2.23;0.97;;;5.60;99.90;;;;;;6325157;22;20178;-90
2022/04/20 08:21:55;;;;;;;1.00;0.70;;;5.50;99.90;;;;;;6314646;22;20182;-90
2022/04/20 08:24:33;;;;;;;1.80;1.10;;;5.50;99.90;;;;;;6324212;22;20204;-90
2022/04/20 08:27:05;;;;;;;1.80;1.07;;;5.40;99.90;;;;;;6315014;22;20178;-91
2022/04/20 08:29:37;;;;;;;2.57;1.00;;;5.30;99.90;;;;;;6315181;22;20162;-90
2022/04/20 08:32:09;;;;;;;1.00;0.90;;;5.30;99.90;;;;;;6318453;22;20173;-91
2022/04/20 08:34:42;;;;;;;1.17;0.93;;;5.20;99.90;;;;;;6316183;22;20174;-91
2022/04/20 08:37:29;;;;;;;1.70;1.10;;;5.20;99.90;;;;;;6312529;22;20203;-92
2022/04/20 08:40:01;;;;;;;1.23;1.10;;;5.10;99.90;;;;;;6314718;22;20159;-89
2022/04/20 08:42:37;;;;;;;1.67;1.33;;;5.10;99.90;;;;;;6313480;22;20557;-91
2022/04/20 08:45:09;;;;;;;2.63;1.17;;;5.00;99.90;;;;;;6313398;22;20243;-91
2022/04/20 08:47:41;;;;;;;1.87;1.00;;;5.00;99.90;;;;;;6311792;22;20175;-91
2022/04/20 08:50:15;;;;;;;2.80;1.20;;;4.90;99.90;;;;;;6314369;22;20166;-91
2022/04/20 08:52:49;;;;;;;1.70;1.00;;;4.80;99.90;;;;;;6313666;22;20232;-91
2022/04/20 08:55:22;;;;;;;1.23;1.07;;;4.80;99.90;;;;;;6313477;22;20173;-90
2022/04/20 08:57:55;;;;;;;1.43;0.97;;;4.70;99.90;;;;;;6312620;22;20203;-91
2022/04/20 09:00:28;;;;;;;1.33;1.23;;;4.60;99.90;;;;;;6317501;22;20240;-90
2022/04/20 09:03:02;;;;;;;1.37;1.27;;;4.50;99.90;;;;;;6315635;22;20206;-91
2022/04/20 09:05:37;;;;;;;1.33;1.10;;;4.50;99.90;;;;;;6324520;22;20187;-91
2022/04/20 09:08:12;;;;;;;1.77;1.07;;;4.40;99.90;;;;;;6333749;22;20175;-92
2022/04/20 09:10:45;;;;;;;1.50;1.17;;;4.40;99.90;;;;;;6334450;22;20178;-90
2022/04/20 09:13:17;;;;;;;1.23;1.13;;;4.30;99.90;;;;;;6326093;22;20212;-91
2022/04/20 09:15:54;;;;;;;1.93;1.10;;;4.30;99.90;;;;;;6322184;22;20222;-90
2022/04/20 09:18:29;;;;;;;1.73;1.20;;;4.30;99.90;;;;;;6320094;22;20162;-91
2022/04/20 09:21:09;;;;;;;1.50;1.00;;;4.30;99.90;;;;;;6321078;22;20166;-91
2022/04/20 09:23:48;;;;;;;1.90;1.10;;;4.20;99.90;;;;;;6321610;22;20199;-91
2022/04/20 09:26:23;;;;;;;1.30;1.03;;;4.20;99.90;;;;;;6313858;22;20175;-91
2022/04/20 09:29:07;;;;;;;1.43;1.03;;;4.30;99.90;;;;;;6313652;22;20177;-91
2022/04/20 09:31:45;;;;;;;1.97;1.00;;;4.30;99.90;;;;;;6316331;22;20170;-92
2022/04/20 09:34:34;;;;;;;1.50;1.00;;;4.30;99.90;;;;;;6311997;22;20174;-91
2022/04/20 09:37:16;;;;;;;1.77;1.20;;;4.30;99.90;;;;;;6313224;22;20257;-91
2022/04/20 09:39:50;;;;;;;1.53;1.00;;;4.20;99.90;;;;;;6317140;22;20207;-90
2022/04/20 09:42:24;;;;;;;1.60;1.10;;;4.20;99.90;;;;;;6319406;22;20562;-92
2022/04/20 09:44:59;;;;;;;1.93;1.50;;;4.10;99.90;;;;;;6318149;22;20228;-91
2022/04/20 09:50:23;;;;;;;1.73;1.20;;;4.10;99.90;;;;;;6314660;22;20175;-90
2022/04/20 09:52:59;;;;;;;3.17;1.30;;;4.20;99.90;;;;;;6313821;22;20171;-91
2022/04/20 09:55:35;;;;;;;1.40;1.10;;;4.20;99.90;;;;;;6328137;22;20162;-91
2022/04/20 09:58:18;;;;;;;1.30;1.20;;;4.20;99.90;;;;;;6331688;22;20273;-91
2022/04/20 10:00:50;;;;;;;1.17;0.87;;;4.20;99.90;;;;;;6323282;22;20178;-91
2022/04/20 10:03:31;;;;;;;2.97;1.20;;;4.10;99.90;;;;;;6313380;22;20528;-90
2022/04/20 10:06:05;;;;;;;1.80;1.10;;;4.10;99.90;;;;;;6312509;22;20174;-90
2022/04/20 10:08:38;;;;;;;1.20;1.10;;;4.10;99.90;;;;;;6311772;22;20170;-91
2022/04/20 10:11:14;;;;;;;1.10;1.00;;;4.20;99.90;;;;;;6313729;22;20527;-90
2022/04/20 10:16:05;;;;;;;1.10;1.00;;;4.10;99.90;;;;;;6318974;22;20224;-91
2022/04/20 10:16:39;;;;;;;1.50;0.93;;;4.10;99.90;;;;;;6315605;22;20216;-91
2022/04/20 10:19:14;;;;;;;1.17;1.03;;;4.10;99.90;;;;;;6312405;22;20178;-91
2022/04/20 10:21:53;;;;;;;3.27;1.30;;;4.10;99.90;;;;;;6312763;22;20178;-91
2022/04/20 10:24:32;;;;;;;2.03;1.10;;;4.00;99.90;;;;;;6312563;22;20674;-90
2022/04/20 10:27:10;;;;;;;2.30;1.10;;;4.00;99.90;;;;;;6312529;22;20170;-90
2022/04/20 10:29:48;;;;;;;1.00;0.90;;;3.90;99.90;;;;;;6311899;22;20200;-90
2022/04/20 10:32:25;;;;;;;1.27;1.10;;;3.90;99.90;;;;;;6311203;22;20226;-91
2022/04/20 10:35:00;;;;;;;2.23;1.20;;;3.90;99.90;;;;;;6311948;22;20544;-91
2022/04/20 10:37:31;;;;;;;2.17;1.40;;;3.90;99.90;;;;;;6310617;22;20210;-92
2022/04/20 10:40:19;;;;;;;1.10;1.00;;;3.90;99.90;;;;;;6312472;22;20212;-91
2022/04/20 10:43:20;;;;;;;0.80;0.80;;;3.90;99.90;;;;;;6311662;22;20265;-91
2022/04/20 10:46:16;;;;;;;1.43;1.20;;;3.90;99.90;;;;;;6311331;22;20181;-91
2022/04/20 10:48:58;;;;;;;1.70;1.17;;;3.90;99.90;;;;;;6313004;22;20209;-91
2022/04/20 10:51:41;;;;;;;1.50;1.00;;;3.80;99.90;;;;;;6311659;22;20220;-90
2022/04/20 10:54:29;;;;;;;1.47;1.27;;;3.80;99.90;;;;;;6315823;22;20483;-90
2022/04/20 10:57:16;;;;;;;1.00;1.00;;;3.80;99.90;;;;;;6311294;22;20194;-91
2022/04/20 11:00:27;;;;;;;4.70;1.50;;;3.70;99.90;;;;;;6317461;22;20174;-90
2022/04/20 11:03:04;;;;;;;1.93;1.20;;;3.60;99.90;;;;;;6311939;22;20178;-90
2022/04/20 11:05:53;;;;;;;2.87;1.30;;;3.60;99.90;;;;;;6313944;22;20221;-90
2022/04/20 11:08:26;;;;;;;2.87;1.40;;;3.70;99.90;;;;;;6311004;22;20239;-91
2022/04/20 11:20:01;;;;;;;1.60;1.50;;;3.60;99.90;;;;;;6311547;22;20182;-90
2022/04/20 11:22:32;;;;;;;1.20;1.00;;;3.60;99.90;;;;;;6312267;22;20261;-91
2022/04/20 11:25:06;;;;;;;1.53;1.23;;;3.50;99.90;;;;;;6309930;22;20247;-91
2022/04/20 11:27:37;;;;;;;2.23;1.20;;;3.50;99.90;;;;;;6310554;22;20182;-91
2022/04/20 11:30:16;;;;;;;1.73;1.00;;;3.40;99.90;;;;;;6311630;22;20194;-92
2022/04/20 11:32:48;;;;;;;1.30;1.20;;;3.50;99.90;;;;;;6310744;22;20617;-90
2022/04/20 11:35:22;;;;;;;1.30;1.07;;;3.50;99.90;;;;;;6311643;22;20243;-90
2022/04/20 11:37:58;;;;;;;1.27;1.17;;;3.40;99.90;;;;;;6310684;22;20193;-91
2022/04/20 11:40:30;;;;;;;1.67;1.20;;;3.40;99.90;;;;;;6311995;22;20178;-91
2022/04/20 11:43:11;;;;;;;1.33;1.20;;;3.40;99.90;;;;;;6311896;22;20490;-90
2022/04/20 11:46:07;;;;;;;2.90;1.20;;;3.40;99.90;;;;;;6314747;22;20181;-90
2022/04/20 11:48:39;;;;;;;2.23;1.20;;;3.40;99.90;;;;;;6312467;22;20177;-91
2022/04/20 11:51:11;;;;;;;1.63;1.20;;;3.40;99.90;;;;;;6313090;22;20167;-91
2022/04/20 11:53:43;;;;;;;1.37;1.27;;;3.40;99.90;;;;;;6312246;22;20181;-91
2022/04/20 11:56:15;;;;;;;2.10;1.30;;;3.40;99.90;;;;;;6312279;22;20175;-90
2022/04/20 11:58:53;;;;;;;1.10;1.00;;;3.40;99.90;;;;;;6313684;22;20182;-91
2022/04/20 12:01:27;;;;;;;1.70;1.20;;;3.40;99.90;;;;;;6315404;22;20216;-91
2022/04/20 12:04:00;;;;;;;1.30;1.20;;;3.40;99.90;;;;;;6313709;22;20487;-91
2022/04/20 12:06:33;;;;;;;2.07;1.70;;;3.40;99.90;;;;;;6317905;22;20230;-90
2022/04/20 12:09:04;;;;;;;1.83;1.10;;;3.40;99.90;;;;;;6331729;22;20167;-90
2022/04/20 12:11:36;;;;;;;1.97;1.47;;;3.40;99.90;;;;;;6334782;22;20186;-91
2022/04/20 12:14:07;;;;;;;1.20;1.10;;;3.30;99.90;;;;;;6324986;22;20174;-91
2022/04/20 12:16:43;;;;;;;1.50;1.23;;;3.30;99.90;;;;;;6315661;22;20174;-91
2022/04/20 12:19:15;;;;;;;2.70;1.20;;;3.30;99.90;;;;;;6314478;22;20162;-91
2022/04/20 12:21:51;;;;;;;1.20;1.10;;;3.30;99.90;;;;;;6311840;22;20182;-91
2022/04/20 12:24:23;;;;;;;1.27;0.90;;;3.30;99.90;;;;;;6312638;22;20190;-90
2022/04/20 12:26:58;;;;;;;1.37;1.23;;;3.30;99.90;;;;;;6313878;22;20267;-91
2022/04/20 12:29:32;;;;;;;1.40;1.20;;;3.30;99.90;;;;;;6311347;22;20178;-92
2022/04/20 12:32:07;;;;;;;1.47;1.20;;;3.30;99.90;;;;;;6312563;22;20178;-90
2022/04/20 12:34:59;;;;;;;1.47;1.00;;;3.20;99.90;;;;;;6323344;22;20200;-91
2022/04/20 12:37:33;;;;;;;1.50;1.10;;;3.20;99.90;;;;;;6312748;22;20189;-92
2022/04/20 12:40:22;;;;;;;3.07;1.10;;;3.20;99.90;;;;;;6313498;22;20261;-90
2022/04/20 12:43:00;;;;;;;1.13;0.80;;;3.20;99.90;;;;;;6313888;22;20261;-91
2022/04/20 12:45:33;;;;;;;1.47;1.00;;;3.10;99.90;;;;;;6314433;22;20194;-91
2022/04/20 12:48:08;;;;;;;2.53;0.90;;;3.20;99.90;;;;;;6315945;22;20209;-90
2022/04/20 12:50:40;;;;;;;0.70;0.70;;;3.20;99.90;;;;;;6331497;22;20174;-91
2022/04/20 12:53:15;;;;;;;1.63;1.13;;;3.10;99.90;;;;;;6334179;22;20174;-91
2022/04/20 13:04:22;;;;;;;1.20;1.10;;;3.10;99.90;;;;;;6319773;22;20174;-90
2022/04/20 13:09:22;;;;;;;1.33;0.90;;;3.00;99.90;;;;;;6286421;22;20185;-91
2022/04/20 13:11:54;;;;;;;1.47;0.80;;;3.00;99.90;;;;;;6284766;22;20194;-91
2022/04/20 13:14:25;;;;;;;0.97;0.90;;;2.90;99.90;;;;;;6287881;22;20182;-90
2022/04/20 13:16:56;;;;;;;2.67;1.23;;;2.90;99.90;;;;;;6289143;22;20220;-89
2022/04/20 13:19:33;;;;;;;1.73;1.10;;;2.90;99.90;;;;;;6299332;22;20210;-90
2022/04/20 13:22:04;;;;;;;1.10;1.00;;;2.90;99.90;;;;;;6301818;22;20166;-88
2022/04/20 13:30:12;;;;;;;1.43;1.00;;;2.80;99.90;;;;;;6297080;22;20167;-91
2022/04/20 13:32:44;;;;;;;1.37;1.00;;;2.70;99.90;;;;;;6283487;22;20172;-91
2022/04/20 13:35:17;;;;;;;1.10;1.00;;;2.70;99.90;;;;;;6282440;22;20205;-91
2022/04/20 13:37:49;;;;;;;0.83;0.63;;;2.70;99.90;;;;;;6281358;22;20171;-91
2022/04/20 13:40:21;;;;;;;0.80;0.80;;;2.80;99.90;;;;;;6282396;22;20163;-91
2022/04/20 13:42:54;;;;;;;1.17;0.80;;;2.80;99.90;;;;;;6256264;22;20237;-91
2022/04/20 13:45:25;;;;;;;1.83;1.00;;;2.80;99.90;;;;;;6282551;22;20221;-91
2022/04/20 13:47:57;;;;;;;1.10;1.00;;;2.90;99.90;;;;;;6281560;22;20203;-91
2022/04/20 13:50:30;;;;;;;0.87;0.70;;;2.90;99.90;;;;;;6282369;22;20175;-91
2022/04/20 13:53:03;;;;;;;2.07;1.00;;;2.90;99.90;;;;;;6281463;22;20648;-92
2022/04/20 13:55:35;;;;;;;1.37;0.90;;;2.90;99.90;;;;;;6256183;22;20179;-91
2022/04/20 13:58:07;;;;;;;1.20;1.03;;;3.00;99.90;;;;;;6280687;22;20198;-91
2022/04/20 14:00:40;;;;;;;2.07;1.00;;;3.00;99.90;;;;;;6282079;22;20167;-91
2022/04/20 14:03:11;;;;;;;0.90;0.90;;;3.10;99.90;;;;;;6282222;22;20647;-90
2022/04/20 14:05:44;;;;;;;2.03;1.27;;;3.20;99.90;;;;;;6281661;22;20225;-90
2022/04/20 14:08:16;;;;;;;1.20;1.10;;;3.30;99.90;;;;;;6280572;22;20202;-91
2022/04/20 14:10:47;;;;;;;1.17;1.07;;;3.40;99.90;;;;;;6282453;22;20178;-91
2022/04/20 14:13:18;;;;;;;3.10;1.07;;;3.40;99.90;;;;;;6282257;22;20197;-90
2022/04/20 14:15:50;;;;;;;1.13;1.03;;;3.50;99.90;;;;;;6282554;22;20197;-90
2022/04/20 14:18:23;;;;;;;2.10;1.10;;;3.60;99.90;;;;;;6281401;22;20186;-91
2022/04/20 14:20:57;;;;;;;1.10;0.90;;;3.70;99.90;;;;;;6257664;22;20167;-89
2022/04/20 14:23:29;;;;;;;3.07;1.23;;;3.80;99.90;;;;;;6270439;22;20166;-89
2022/04/20 14:34:23;;;;;;;2.13;0.93;;;4.20;99.90;;;;;;6269119;22;20165;-91
2022/04/20 14:36:56;;;;;;;1.57;1.00;;;4.40;99.90;;;;;;6303506;22;20193;-90
2022/04/20 14:39:28;;;;;;;0.90;0.90;;;4.50;99.90;;;;;;6301248;22;20171;-90
2022/04/20 14:42:01;;;;;;;2.03;1.03;;;4.60;99.90;;;;;;6273957;22;20171;-90
2022/04/20 14:44:34;;;;;;;1.33;0.70;;;4.70;99.90;;;;;;6298770;22;20200;-91
2022/04/20 14:47:11;;;;;;;2.63;1.07;;;4.80;99.90;;;;;;6269899;22;20191;-88
2022/04/20 14:49:45;;;;;;;1.37;0.73;;;4.90;99.90;;;;;;6294857;22;20179;-89
2022/04/20 14:52:20;;;;;;;1.87;0.90;;;5.00;99.90;;;;;;6291721;22;20170;-91
2022/04/20 14:54:53;;;;;;;1.17;0.70;;;5.10;99.90;;;;;;6295534;22;20177;-90
2022/04/20 14:57:44;;;;;;;1.10;1.00;;;5.30;99.90;;;;;;6272380;22;20505;-91
2022/04/20 15:00:18;;;;;;;1.50;0.77;;;5.40;99.90;;;;;;6297317;22;20174;-90
2022/04/20 15:02:54;;;;;;;0.83;0.73;;;5.60;99.90;;;;;;6292297;22;20222;-90
2022/04/20 15:05:25;;;;;;;1.07;0.80;;;5.70;99.90;;;;;;6293917;22;20182;-91
2022/04/20 15:08:05;;;;;;;2.83;0.80;;;5.90;99.90;;;;;;6295032;22;20197;-91